createdAt,value
2023-01-02T00:00:53.511Z,100426.34
2023-01-02T00:03:21.555Z,100411.19
2023-01-02T00:05:49.373Z,100422.72
2023-01-02T00:08:17.410Z,100417.28
2023-01-02T00:10:45.613Z,100402.25
2023-01-02T00:13:13.624Z,100415.59
2023-01-02T00:15:41.375Z,100412.13
2023-01-02T00:18:10.445Z,100422.28
2023-01-02T00:20:38.103Z,100411.66
2023-01-02T00:23:05.826Z,100418.31
2023-01-02T00:25:35.112Z,100409.38
2023-01-02T00:28:03.382Z,100405.75
2023-01-02T00:30:37.980Z,100399.91
2023-01-02T00:33:06.371Z,100406.56
2023-01-02T00:35:38.198Z,100410.75
2023-01-02T00:38:06.239Z,100407.09
2023-01-02T00:40:34.305Z,100404.59
2023-01-02T00:43:02.380Z,100409.91
2023-01-02T00:45:30.208Z,100407.09
2023-01-02T00:47:57.973Z,100404.06
2023-01-02T00:50:25.699Z,100388.47
2023-01-02T00:52:54.893Z,100393.31
2023-01-02T00:55:22.647Z,100390.97
2023-01-02T00:57:50.391Z,100385.50
2023-01-02T01:00:23.667Z,100391.50
2023-01-02T01:02:55.536Z,100381.56
2023-01-02T01:05:23.410Z,100385.34
2023-01-02T01:07:51.152Z,100373.63
2023-01-02T01:10:20.337Z,100379.59
2023-01-02T01:12:48.061Z,100378.63
2023-01-02T01:15:15.801Z,100361.19
2023-01-02T01:17:43.562Z,100367.03
2023-01-02T01:20:12.273Z,100381.28
2023-01-02T01:22:39.997Z,100384.59
2023-01-02T01:25:08.312Z,100385.88
2023-01-02T01:27:37.486Z,100375.28
2023-01-02T01:30:06.509Z,100383.25
2023-01-02T01:32:34.601Z,100373.31
2023-01-02T01:35:03.487Z,100387.25
2023-01-02T01:37:31.314Z,100387.75
2023-01-02T01:39:59.011Z,100356.63
2023-01-02T01:42:33.114Z,100386.63
2023-01-02T01:45:02.362Z,100390.25
2023-01-02T01:47:38.845Z,100391.09
2023-01-02T01:50:10.213Z,100394.22
2023-01-02T01:52:44.143Z,100389.22
2023-01-02T01:55:16.007Z,100396.41
2023-01-02T01:57:47.508Z,100399.22
2023-01-02T02:00:17.509Z,100395.56
2023-01-02T02:02:49.297Z,100403.91
2023-01-02T02:05:23.131Z,100401.56
2023-01-02T02:08:00.976Z,100406.72
2023-01-02T02:10:28.717Z,100403.91
2023-01-02T02:12:56.955Z,100400.28
2023-01-02T02:15:31.996Z,100399.00
2023-01-02T02:18:13.168Z,100403.31
2023-01-02T02:20:50.670Z,100360.75
2023-01-02T02:23:54.229Z,100410.59
2023-01-02T02:26:54.280Z,100408.91
2023-01-02T02:30:00.523Z,100395.66
2023-01-02T02:32:40.436Z,100401.94
2023-01-02T02:35:21.431Z,100403.63
2023-01-02T02:37:56.227Z,100394.66
2023-01-02T02:40:34.317Z,100407.78
2023-01-02T02:43:11.229Z,100399.66
2023-01-02T02:45:49.823Z,100397.31
2023-01-02T02:48:27.025Z,100391.53
2023-01-02T02:50:59.756Z,100393.53
2023-01-02T02:53:33.671Z,100391.03
2023-01-02T02:56:05.543Z,100384.88
2023-01-02T02:58:35.441Z,100384.06
2023-01-02T03:01:04.024Z,100385.38
2023-01-02T03:03:33.209Z,100380.41
2023-01-02T03:06:09.812Z,100369.56
2023-01-02T03:08:44.416Z,100373.75
2023-01-02T03:11:13.020Z,100366.78
2023-01-02T03:13:44.035Z,100369.28
2023-01-02T03:16:17.786Z,100373.22
2023-01-02T03:18:55.564Z,100372.38
2023-01-02T03:21:31.776Z,100379.16
2023-01-02T03:24:03.328Z,100378.00
2023-01-02T03:26:33.865Z,100398.91
2023-01-02T03:29:08.304Z,100404.75
2023-01-02T03:31:40.936Z,100409.22
2023-01-02T03:34:14.603Z,100390.41
2023-01-02T03:36:46.835Z,100411.78
2023-01-02T03:39:18.449Z,100408.97
2023-01-02T03:41:54.186Z,100414.63
2023-01-02T03:44:23.926Z,100402.34
2023-01-02T03:46:55.983Z,100391.59
2023-01-02T03:49:31.669Z,100398.69
2023-01-02T03:51:59.744Z,100396.06
2023-01-02T03:54:29.026Z,100390.56
2023-01-02T03:57:00.730Z,100393.91
2023-01-02T03:59:35.955Z,100404.50
2023-01-02T04:02:11.271Z,100414.81
2023-01-02T04:04:50.844Z,100420.97
2023-01-02T04:07:27.647Z,100418.16
2023-01-02T04:09:56.729Z,100419.44
2023-01-02T04:12:25.975Z,100416.09
2023-01-02T04:14:58.835Z,100398.16
2023-01-02T04:17:30.136Z,100395.88
2023-01-02T04:20:03.165Z,100396.50
2023-01-02T04:22:36.047Z,100374.53
2023-01-02T04:25:08.512Z,100393.16
2023-01-02T04:27:39.956Z,100403.91
2023-01-02T04:30:08.527Z,100411.88
2023-01-02T04:32:41.808Z,100413.53
2023-01-02T04:35:15.342Z,100410.75
2023-01-02T04:37:44.329Z,100413.09
2023-01-02T04:40:16.711Z,100425.53
2023-01-02T04:42:45.917Z,100427.03
2023-01-02T04:45:14.620Z,100401.72
2023-01-02T04:47:42.643Z,100431.88
2023-01-02T04:50:12.242Z,100431.03
2023-01-02T04:52:40.109Z,100436.34
2023-01-02T04:55:09.798Z,100438.63
2023-01-02T04:57:37.918Z,100450.91
2023-01-02T05:00:08.369Z,100455.88
2023-01-02T05:02:36.770Z,100459.72
2023-01-02T05:05:05.080Z,100452.59
2023-01-02T05:07:35.395Z,100455.88
2023-01-02T05:10:03.262Z,100464.53
2023-01-02T05:12:34.115Z,100463.25
2023-01-02T05:15:01.861Z,100468.56
2023-01-02T05:17:29.575Z,100456.22
2023-01-02T05:19:57.306Z,100468.72
2023-01-02T05:22:42.845Z,100458.09
2023-01-02T05:25:12.150Z,100469.41
2023-01-02T05:27:41.024Z,100478.47
2023-01-02T05:30:10.568Z,100459.53
2023-01-02T05:32:38.366Z,100467.19
2023-01-02T05:35:06.920Z,100476.81
2023-01-02T05:37:34.720Z,100477.34
2023-01-02T05:40:02.493Z,100485.47
2023-01-02T05:42:31.585Z,100489.94
2023-01-02T05:44:59.365Z,100493.56
2023-01-02T05:47:27.067Z,100483.25
2023-01-02T05:49:54.815Z,100490.38
2023-01-02T05:52:22.858Z,100488.69
2023-01-02T05:54:50.588Z,100488.41
2023-01-02T05:57:18.713Z,100489.38
2023-01-02T05:59:47.784Z,100495.69
2023-01-02T06:02:15.643Z,100499.63
2023-01-02T06:04:43.381Z,100493.34
2023-01-02T06:07:11.242Z,100496.28
2023-01-02T06:09:38.987Z,100488.25
2023-01-02T06:12:06.941Z,100498.66
2023-01-02T06:14:34.657Z,100495.31
2023-01-02T06:17:03.808Z,100500.09
2023-01-02T06:19:31.539Z,100507.06
2023-01-02T06:21:59.287Z,100510.69
2023-01-02T06:24:27.014Z,100513.47
2023-01-02T06:26:55.657Z,100503.03
2023-01-02T06:29:23.656Z,100512.78
2023-01-02T06:31:52.115Z,100502.34
2023-01-02T06:34:21.321Z,100507.50
2023-01-02T06:36:49.085Z,100510.16
2023-01-02T06:39:16.796Z,100510.53
2023-01-02T06:41:44.633Z,100519.34
2023-01-02T06:44:13.872Z,100514.19
2023-01-02T06:46:41.612Z,100514.88
2023-01-02T06:49:09.321Z,100506.22
2023-01-02T06:51:38.487Z,100509.16
2023-01-02T06:54:06.286Z,100508.31
2023-01-02T06:56:34.046Z,100499.00
2023-01-02T06:59:01.826Z,100512.09
2023-01-02T07:01:29.959Z,100506.81
2023-01-02T07:03:57.826Z,100513.78
2023-01-02T07:06:28.051Z,100515.75
2023-01-02T07:08:57.197Z,100519.38
2023-01-02T07:11:26.092Z,100526.66
2023-01-02T07:13:57.987Z,100378.59
2023-01-02T07:16:26.363Z,100526.97
2023-01-02T07:18:55.375Z,100526.81
2023-01-02T07:21:23.882Z,100531.00
2023-01-02T07:23:51.761Z,100543.25
2023-01-02T07:26:22.854Z,100547.19
2023-01-02T07:28:51.415Z,100552.25
2023-01-02T07:31:22.611Z,100569.59
2023-01-02T07:33:50.768Z,100547.47
2023-01-02T07:36:22.280Z,100555.44
2023-01-02T07:38:51.665Z,100558.66
2023-01-02T07:41:23.550Z,100548.34
2023-01-02T07:43:52.051Z,100544.34
2023-01-02T07:46:21.565Z,100549.22
2023-01-02T07:48:50.365Z,100544.81
2023-01-02T07:51:22.878Z,100571.97
2023-01-02T07:53:54.462Z,100570.97
2023-01-02T07:56:24.348Z,100555.69
2023-01-02T07:58:52.184Z,100580.50
2023-01-02T08:01:19.987Z,100591.38
2023-01-02T08:03:47.836Z,100592.50
2023-01-02T08:06:17.860Z,100598.63
2023-01-02T08:08:45.870Z,100610.06
2023-01-02T08:11:15.189Z,100605.88
2023-01-02T08:13:44.635Z,100613.41
2023-01-02T08:16:14.518Z,100619.66
2023-01-02T08:18:42.386Z,100627.88
2023-01-02T08:21:10.649Z,100623.69
2023-01-02T08:23:38.636Z,100622.88
2023-01-02T08:26:11.083Z,100625.09
2023-01-02T08:28:40.915Z,100608.53
2023-01-02T08:31:12.005Z,100631.50
2023-01-02T08:33:40.331Z,100624.25
2023-01-02T08:36:09.143Z,100627.03
2023-01-02T08:38:36.999Z,100651.16
2023-01-02T08:41:05.555Z,100654.66
2023-01-02T08:43:35.436Z,100661.31
2023-01-02T08:46:05.328Z,100659.63
2023-01-02T08:48:34.769Z,100663.56
2023-01-02T08:51:02.926Z,100664.41
2023-01-02T08:53:30.755Z,100668.56
2023-01-02T08:56:20.272Z,100679.44
2023-01-02T08:58:52.759Z,100675.13
2023-01-02T09:01:21.684Z,100676.94
2023-01-02T09:03:51.852Z,100665.22
2023-01-02T09:06:22.345Z,100651.84
2023-01-02T09:08:52.481Z,100674.00
2023-01-02T09:11:26.891Z,100697.28
2023-01-02T09:13:55.072Z,100700.63
2023-01-02T09:16:23.389Z,100708.69
2023-01-02T09:18:53.156Z,100715.81
2023-01-02T09:21:20.875Z,100715.38
2023-01-02T09:23:48.635Z,100712.59
2023-01-02T09:26:16.968Z,100716.81
2023-01-02T09:28:44.916Z,100710.09
2023-01-02T09:31:14.446Z,100718.16
2023-01-02T09:33:43.682Z,100729.72
2023-01-02T09:36:14.666Z,100735.28
2023-01-02T09:38:43.474Z,100739.16
2023-01-02T09:41:24.515Z,100750.72
2023-01-02T09:43:56.111Z,100752.94
2023-01-02T09:46:32.525Z,100761.97
2023-01-02T09:49:01.660Z,100765.47
2023-01-02T09:51:32.167Z,100772.00
2023-01-02T09:54:00.412Z,100783.84
2023-01-02T09:56:34.274Z,100792.78
2023-01-02T09:59:13.795Z,100808.06
2023-01-02T10:01:54.726Z,100816.13
2023-01-02T10:04:39.833Z,100811.94
2023-01-02T10:07:14.143Z,100807.88
2023-01-02T10:09:50.507Z,100818.59
2023-01-02T10:12:28.544Z,100825.00
2023-01-02T10:15:00.301Z,100831.78
2023-01-02T10:17:34.672Z,100827.44
2023-01-02T10:20:06.292Z,100830.22
2023-01-02T10:22:42.135Z,100831.63
2023-01-02T10:25:18.678Z,100810.16
2023-01-02T10:27:51.885Z,100832.22
2023-01-02T10:30:22.443Z,100814.81
2023-01-02T10:32:56.715Z,100835.59
2023-01-02T10:35:34.956Z,100830.72
2023-01-02T10:38:04.813Z,100829.75
2023-01-02T10:40:33.558Z,100838.94
2023-01-02T10:43:02.081Z,100832.16
2023-01-02T10:45:30.261Z,100826.31
2023-01-02T10:47:58.063Z,100841.97
2023-01-02T10:50:32.995Z,100847.50
2023-01-02T10:53:10.317Z,100842.81
2023-01-02T10:55:41.205Z,100837.50
2023-01-02T10:58:20.570Z,100825.78
2023-01-02T11:00:51.080Z,100838.59
2023-01-02T11:03:23.350Z,100836.41
2023-01-02T11:05:53.021Z,100837.50
2023-01-02T11:08:24.697Z,100838.94
2023-01-02T11:10:52.501Z,100840.59
2023-01-02T11:13:22.433Z,100842.81
2023-01-02T11:15:53.107Z,100848.34
2023-01-02T11:18:25.761Z,100842.25
2023-01-02T11:20:57.010Z,100851.31
2023-01-02T11:23:27.216Z,100853.63
2023-01-02T11:25:55.774Z,100858.59
2023-01-02T11:28:27.980Z,100861.41
2023-01-02T11:31:03.444Z,100856.78
2023-01-02T11:33:34.244Z,100843.69
2023-01-02T11:36:15.086Z,100845.53
2023-01-02T11:38:46.147Z,100861.81
2023-01-02T11:41:47.046Z,100857.50
2023-01-02T11:44:20.698Z,100855.81
2023-01-02T11:46:49.632Z,100852.22
2023-01-02T11:49:20.769Z,100838.03
2023-01-02T11:51:56.910Z,100853.38
2023-01-02T11:54:32.603Z,100839.69
2023-01-02T11:57:01.346Z,100852.22
2023-01-02T11:59:34.631Z,100862.53
2023-01-02T12:02:12.513Z,100855.81
2023-01-02T12:04:40.389Z,100871.56
2023-01-02T12:07:27.401Z,100869.72
2023-01-02T12:10:07.632Z,100877.81
2023-01-02T12:12:53.106Z,100876.72
2023-01-02T12:15:43.908Z,100877.19
2023-01-02T12:18:22.890Z,100881.53
2023-01-02T12:20:57.921Z,100876.78
2023-01-02T12:23:52.143Z,100881.78
2023-01-02T12:26:28.037Z,100885.88
2023-01-02T12:29:47.617Z,100903.31
2023-01-02T12:32:33.634Z,100892.34
2023-01-02T12:35:15.848Z,100896.84
2023-01-02T12:37:49.944Z,100903.09
2023-01-02T12:40:30.160Z,100906.59
2023-01-02T12:43:13.479Z,100916.09
2023-01-02T12:45:50.376Z,100901.31
2023-01-02T12:48:35.417Z,100913.69
2023-01-02T12:51:13.988Z,100918.31
2023-01-02T12:54:20.565Z,100911.03
2023-01-02T12:57:00.407Z,100910.91
2023-01-02T12:59:46.564Z,100913.31
2023-01-02T13:02:31.705Z,100917.50
2023-01-02T13:05:07.442Z,100922.59
2023-01-02T13:07:41.658Z,100928.72
2023-01-02T13:10:17.188Z,100929.06
2023-01-02T13:12:46.820Z,100919.44
2023-01-02T13:15:22.129Z,100918.72
2023-01-02T13:18:09.603Z,100921.38
2023-01-02T13:20:46.511Z,100919.94
2023-01-02T13:23:29.094Z,100924.56
2023-01-02T13:26:00.827Z,100921.19
2023-01-02T13:28:28.706Z,100922.16
2023-01-02T13:31:35.459Z,100919.50
2023-01-02T13:33:52.001Z,100920.59
2023-01-02T13:36:26.446Z,100925.06
2023-01-02T13:38:57.431Z,100927.13
2023-01-02T13:41:27.203Z,100937.81
2023-01-02T13:43:57.855Z,100938.09
2023-01-02T13:47:02.020Z,100939.91
2023-01-02T13:49:21.432Z,100931.81
2023-01-02T13:51:49.251Z,100922.47
2023-01-02T13:54:20.846Z,100932.53
2023-01-02T13:57:25.071Z,100921.94
2023-01-02T13:59:59.269Z,100924.34
2023-01-02T14:02:28.969Z,100928.53
2023-01-02T14:04:57.084Z,100940.47
2023-01-02T14:07:49.370Z,100947.44
2023-01-02T14:10:42.266Z,100956.88
2023-01-02T14:13:18.548Z,100971.88
2023-01-02T14:16:34.727Z,100978.63
2023-01-02T14:19:17.451Z,100974.72
2023-01-02T14:21:48.876Z,100986.69
2023-01-02T14:24:30.163Z,100976.16
2023-01-02T14:27:01.138Z,100997.06
2023-01-02T14:29:30.599Z,100986.97
2023-01-02T14:32:02.633Z,101009.09
2023-01-02T14:34:32.746Z,101019.19
2023-01-02T14:37:02.768Z,101012.59
2023-01-02T14:39:33.684Z,101022.31
2023-01-02T14:42:32.454Z,101024.22
2023-01-02T14:45:05.775Z,101020.63
2023-01-02T14:47:39.123Z,101025.91
2023-01-02T14:50:15.025Z,101031.47
2023-01-02T14:52:46.615Z,101022.59
2023-01-02T14:55:18.742Z,101021.63
2023-01-02T14:57:49.521Z,101029.44
2023-01-02T15:00:23.238Z,101025.72
2023-01-02T15:02:56.018Z,101023.31
2023-01-02T15:05:34.511Z,101030.03
2023-01-02T15:08:05.282Z,101035.31
2023-01-02T15:10:33.085Z,101040.38
2023-01-02T15:13:07.232Z,101044.69
2023-01-02T15:15:42.429Z,101052.50
2023-01-02T15:18:17.974Z,101055.75
2023-01-02T15:20:50.330Z,101043.47
2023-01-02T15:23:22.468Z,101066.53
2023-01-02T15:25:50.787Z,101077.13
2023-01-02T15:28:27.291Z,101067.63
2023-01-02T15:31:03.332Z,101078.81
2023-01-02T15:33:32.974Z,101082.16
2023-01-02T15:36:05.947Z,101095.50
2023-01-02T15:38:33.747Z,101098.03
2023-01-02T15:41:01.663Z,101108.00
2023-01-02T15:43:50.061Z,101108.00
2023-01-02T15:46:18.533Z,101110.97
2023-01-02T15:48:48.841Z,101112.06
2023-01-02T15:51:20.551Z,101117.59
2023-01-02T15:54:13.209Z,101123.97
2023-01-02T15:56:42.311Z,101127.69
2023-01-02T15:59:25.413Z,101120.59
2023-01-02T16:01:53.544Z,101143.19
2023-01-02T16:04:26.833Z,101133.56
2023-01-02T16:06:58.221Z,101145.34
2023-01-02T16:09:28.463Z,101145.56
2023-01-02T16:11:58.494Z,101141.22
2023-01-02T16:14:34.046Z,101156.84
2023-01-02T16:17:05.109Z,101146.63
2023-01-02T16:19:37.034Z,101157.59
2023-01-02T16:22:16.952Z,101168.16
2023-01-02T16:24:48.563Z,101175.13
2023-01-02T16:27:24.456Z,101182.53
2023-01-02T16:29:54.327Z,101180.88
2023-01-02T16:32:28.368Z,101185.19
2023-01-02T16:35:05.670Z,101192.03
2023-01-02T16:37:36.728Z,101205.25
2023-01-02T16:41:01.459Z,101216.78
2023-01-02T16:43:26.243Z,101217.41
2023-01-02T16:45:54.118Z,101224.38
2023-01-02T16:48:25.191Z,101226.06
2023-01-02T16:50:54.489Z,101222.69
2023-01-02T16:53:26.933Z,101216.38
2023-01-02T16:55:55.514Z,101232.97
2023-01-02T16:58:25.224Z,101235.88
2023-01-02T17:00:54.668Z,101243.94
2023-01-02T17:03:24.513Z,101245.28
2023-01-02T17:06:01.892Z,101247.19
2023-01-02T17:08:32.371Z,101249.94
2023-01-02T17:11:00.453Z,101254.63
2023-01-02T17:13:28.769Z,101258.66
2023-01-02T17:15:57.342Z,101260.34
2023-01-02T17:18:25.639Z,101263.34
2023-01-02T17:20:53.513Z,101268.63
2023-01-02T17:23:21.275Z,101269.69
2023-01-02T17:25:50.623Z,101275.09
2023-01-02T17:28:18.422Z,101275.66
2023-01-02T17:30:49.000Z,101299.78
2023-01-02T17:33:17.546Z,101306.13
2023-01-02T17:35:45.960Z,101299.56
2023-01-02T17:38:14.034Z,101318.25
2023-01-02T17:40:41.841Z,101313.34
2023-01-02T17:43:11.098Z,101316.47
2023-01-02T17:45:38.989Z,101317.91
2023-01-02T17:48:11.466Z,101324.88
2023-01-02T17:50:39.993Z,101322.81
2023-01-02T17:53:08.010Z,101333.59
2023-01-02T17:55:35.829Z,101336.75
2023-01-02T17:58:03.949Z,101342.16
2023-01-02T18:00:33.114Z,101341.72
2023-01-02T18:03:00.884Z,101353.66
2023-01-02T18:05:28.732Z,101358.34
2023-01-02T18:07:56.565Z,101346.53
2023-01-02T18:10:29.210Z,101357.66
2023-01-02T18:13:00.585Z,101363.47
2023-01-02T18:15:29.753Z,101363.25
2023-01-02T18:18:02.306Z,101365.41
2023-01-02T18:20:30.106Z,101378.28
2023-01-02T18:22:58.758Z,101377.72
2023-01-02T18:25:28.439Z,101371.31
2023-01-02T18:28:00.767Z,101375.84
2023-01-02T18:30:28.915Z,101375.84
2023-01-02T18:33:04.979Z,101388.81
2023-01-02T18:38:29.855Z,101386.09
2023-01-02T18:40:57.622Z,101404.25
2023-01-02T18:43:29.229Z,101409.63
2023-01-02T18:45:59.775Z,101403.91
2023-01-02T18:48:29.002Z,101409.53
2023-01-02T18:51:01.042Z,101420.25
2023-01-02T18:53:31.648Z,101421.84
2023-01-02T18:56:03.719Z,101429.59
2023-01-02T18:58:40.798Z,101428.28
2023-01-02T19:01:29.436Z,101435.47
2023-01-02T19:04:24.114Z,101428.75
2023-01-02T19:06:57.406Z,101438.13
2023-01-02T19:09:30.441Z,101443.00
2023-01-02T19:12:19.616Z,101442.25
2023-01-02T19:14:47.409Z,101445.00
2023-01-02T19:17:22.349Z,101452.69
2023-01-02T19:19:51.699Z,101461.97
2023-01-02T19:22:20.924Z,101466.50
2023-01-02T19:24:49.339Z,101457.34
2023-01-02T19:27:24.431Z,101455.75
2023-01-02T19:29:53.154Z,101468.53
2023-01-02T19:32:28.602Z,101479.59
2023-01-02T19:35:00.989Z,101476.00
2023-01-02T19:37:38.892Z,101488.25
2023-01-02T19:40:18.593Z,101487.22
2023-01-02T19:42:47.978Z,101485.31
2023-01-02T19:45:17.201Z,101501.88
2023-01-02T19:47:45.309Z,101498.19
2023-01-02T19:50:16.298Z,101504.53
2023-01-02T19:52:44.304Z,101511.25
2023-01-02T19:55:13.156Z,101507.81
2023-01-02T19:57:41.495Z,101509.59
2023-01-02T20:00:12.646Z,101506.84
2023-01-02T20:02:41.345Z,101512.97
2023-01-02T20:05:10.126Z,101520.88
2023-01-02T20:07:39.269Z,101519.94
2023-01-02T20:10:08.173Z,101511.81
2023-01-02T20:12:40.471Z,101526.69
2023-01-02T20:15:10.943Z,101526.91
2023-01-02T20:17:40.247Z,101525.44
2023-01-02T20:20:10.388Z,101509.47
2023-01-02T20:22:41.261Z,101525.44
2023-01-02T20:25:09.529Z,101536.59
2023-01-02T20:27:37.868Z,101543.69
2023-01-02T20:30:07.219Z,101542.00
2023-01-02T20:32:35.350Z,101531.75
2023-01-02T20:35:03.142Z,101555.06
2023-01-02T20:37:31.102Z,101562.56
2023-01-02T20:40:00.262Z,101560.97
2023-01-02T20:42:27.992Z,101568.56
2023-01-02T20:44:55.702Z,101568.28
2023-01-02T20:47:23.490Z,101574.91
2023-01-02T20:49:51.357Z,101584.72
2023-01-02T20:52:20.322Z,101586.00
2023-01-02T20:57:17.077Z,101592.75
2023-01-02T20:59:44.893Z,101584.53
2023-01-02T21:02:12.824Z,101601.06
2023-01-02T21:04:40.692Z,101606.72
2023-01-02T21:07:08.409Z,101605.00
2023-01-02T21:09:36.197Z,101603.53
2023-01-02T21:12:04.092Z,101607.56
2023-01-02T21:14:37.588Z,101624.53
2023-01-02T21:17:06.001Z,101629.38
2023-01-02T21:19:33.799Z,101629.47
2023-01-02T21:22:01.492Z,101639.81
2023-01-02T21:24:29.260Z,101644.00
2023-01-02T21:26:57.060Z,101637.88
2023-01-02T21:29:24.774Z,101634.75
2023-01-02T21:31:53.963Z,101640.88
2023-01-02T21:34:21.786Z,101637.69
2023-01-02T21:36:49.551Z,101642.97
2023-01-02T21:39:17.316Z,101653.16
2023-01-02T21:42:02.982Z,101652.63
2023-01-02T21:44:30.804Z,101658.09
2023-01-02T21:47:00.091Z,101654.81
2023-01-02T21:49:28.068Z,101660.88
2023-01-02T21:51:55.829Z,101657.91
2023-01-02T21:54:23.543Z,101649.91
2023-01-02T21:56:51.307Z,101665.91
2023-01-02T21:59:19.211Z,101663.47
2023-01-02T22:01:47.065Z,101667.91
2023-01-02T22:04:16.309Z,101666.75
2023-01-02T22:07:20.784Z,101662.75
2023-01-02T22:09:31.933Z,101668.03
2023-01-02T22:12:00.001Z,101662.34
2023-01-02T22:14:30.472Z,101675.00
2023-01-02T22:17:00.898Z,101651.97
2023-01-02T22:19:30.872Z,101688.00
2023-01-02T22:21:59.109Z,101689.38
2023-01-02T22:24:27.800Z,101684.28
2023-01-02T22:26:57.369Z,101680.50
2023-01-02T22:29:51.622Z,101683.72
2023-01-02T22:32:15.532Z,101697.56
2023-01-02T22:34:44.806Z,101694.47
2023-01-02T22:37:20.149Z,101702.19
2023-01-02T22:39:50.046Z,101703.69
2023-01-02T22:42:59.605Z,101683.81
2023-01-02T22:45:27.977Z,101706.03
2023-01-02T22:47:58.277Z,101714.06
2023-01-02T22:50:31.751Z,101706.13
2023-01-02T22:53:00.083Z,101714.06
2023-01-02T22:55:28.425Z,101720.81
2023-01-02T22:57:56.212Z,101724.94
2023-01-02T23:00:24.096Z,101712.50
2023-01-02T23:02:52.066Z,101720.25
2023-01-02T23:05:22.044Z,101703.50
2023-01-02T23:07:51.295Z,101721.94
2023-01-02T23:10:20.177Z,101709.31
2023-01-02T23:12:47.966Z,101710.25
2023-01-02T23:15:15.782Z,101715.53
2023-01-02T23:18:01.125Z,101718.06
2023-01-02T23:20:28.966Z,101719.09
2023-01-02T23:22:58.167Z,101700.69
2023-01-02T23:25:26.021Z,101723.28
2023-01-02T23:27:53.849Z,101736.75
2023-01-02T23:30:21.716Z,101744.38
2023-01-02T23:32:49.511Z,101744.38
2023-01-02T23:35:17.488Z,101726.53
2023-01-02T23:37:45.304Z,101741.09
2023-01-02T23:40:14.857Z,101753.44
2023-01-02T23:42:42.747Z,101752.81
2023-01-02T23:45:12.411Z,101753.25
2023-01-02T23:47:40.233Z,101758.81
2023-01-02T23:50:08.322Z,101760.72
2023-01-02T23:52:36.224Z,101767.56
2023-01-02T23:55:03.985Z,101736.94
2023-01-02T23:57:33.280Z,101770.03
